createdAt,value
2019-04-23T12:30:57.187Z,3.73
2019-04-23T12:36:37.722Z,3.87
2019-04-23T12:39:04.343Z,3.60
2019-04-23T12:41:36.063Z,3.40
2019-04-23T12:44:11.040Z,3.60
2019-04-23T12:46:45.724Z,3.60
2019-04-23T12:49:40.609Z,3.77
2019-04-23T12:51:52.195Z,4.60
2019-04-23T12:54:32.326Z,3.73
2019-04-23T12:57:04.801Z,3.27
2019-04-23T12:59:27.136Z,3.87
2019-04-23T13:04:32.238Z,3.60
2019-04-23T13:07:09.197Z,3.30
2019-04-23T13:09:52.566Z,3.73
2019-04-23T13:12:30.733Z,4.53
2019-04-23T13:15:05.303Z,3.30
2019-04-23T13:17:30.021Z,3.20
2019-04-23T13:20:03.753Z,3.57
2019-04-23T13:22:37.071Z,4.00
2019-04-23T13:25:11.028Z,3.60
2019-04-23T13:28:01.939Z,3.40
2019-04-23T13:30:34.048Z,3.70
2019-04-23T13:32:59.066Z,4.37
2019-04-23T13:53:33.536Z,3.83
2019-04-23T13:55:44.466Z,2.70
2019-04-23T13:58:37.381Z,3.40
2019-04-23T14:03:38.141Z,3.80
2019-04-23T14:11:43.337Z,3.73
2019-04-23T14:14:14.483Z,3.77
2019-04-23T14:16:34.408Z,3.47
2019-04-23T14:19:12.977Z,3.63
2019-04-23T14:26:39.973Z,3.00
2019-04-23T14:29:19.109Z,3.40
2019-04-23T14:31:45.643Z,3.63
2019-04-23T14:34:17.710Z,3.63
2019-04-23T14:37:00.988Z,3.07
2019-04-23T14:39:24.021Z,3.20
2019-04-23T14:42:01.964Z,3.47
2019-04-23T14:44:53.105Z,3.30
2019-04-23T14:47:16.247Z,3.13
2019-04-23T14:50:21.095Z,3.07
2019-04-23T14:52:30.240Z,4.63
2019-04-23T15:00:09.770Z,3.43
2019-04-23T15:02:44.626Z,4.23
2019-04-23T15:05:17.317Z,3.47
2019-04-23T15:07:46.552Z,4.03
2019-04-23T15:10:29.560Z,3.03
2019-04-23T15:12:53.959Z,3.50
2019-04-23T15:15:19.578Z,3.33
2019-04-23T15:17:55.654Z,5.17
2019-04-23T15:20:33.618Z,3.20
2019-04-23T15:26:15.841Z,5.37
2019-04-23T15:28:07.028Z,3.53
2019-04-23T15:30:38.653Z,3.60
2019-04-23T15:33:19.914Z,3.30
2019-04-23T15:35:55.678Z,3.17
2019-04-23T15:38:37.686Z,3.40
2019-04-23T15:40:51.200Z,3.20
2019-04-23T15:43:22.861Z,4.10
2019-04-23T15:45:57.351Z,4.00
2019-04-23T15:48:22.432Z,3.50
2019-04-23T15:51:06.281Z,3.73
2019-04-23T15:53:24.633Z,4.80
2019-04-23T15:56:11.832Z,3.67
2019-04-23T15:58:49.581Z,5.27
2019-04-23T16:03:25.138Z,4.33
2019-04-23T16:05:57.331Z,4.97
2019-04-23T16:09:04.994Z,4.73
2019-04-23T16:16:38.751Z,6.47
2019-04-23T16:24:19.534Z,6.93
2019-04-23T16:26:55.977Z,5.80
2019-04-23T16:32:14.740Z,5.80
2019-04-23T16:34:34.008Z,5.95
2019-04-23T16:37:16.480Z,5.95
2019-04-23T16:39:48.313Z,5.78
2019-04-23T16:42:26.729Z,5.97
2019-04-23T16:47:24.502Z,5.37
2019-04-23T16:52:26.703Z,6.05
2019-04-23T16:55:08.998Z,5.60
2019-04-23T16:57:43.756Z,6.03
2019-04-23T17:03:07.835Z,6.50
2019-04-23T17:07:53.734Z,5.73
2019-04-23T17:12:52.976Z,5.87
2019-04-23T17:15:27.901Z,6.25
2019-04-23T17:17:56.201Z,5.97
2019-04-23T17:20:34.756Z,5.62
2019-04-23T17:23:05.540Z,6.17
2019-04-23T17:25:26.451Z,6.30
2019-04-23T17:28:20.141Z,6.15
2019-04-23T17:36:13.206Z,6.30
2019-04-23T17:38:42.694Z,6.17
2019-04-23T17:41:17.767Z,6.08
2019-04-23T17:43:54.571Z,6.40
2019-04-23T17:46:22.290Z,6.72
2019-04-23T17:48:49.387Z,6.47
2019-04-23T17:51:19.788Z,6.10
2019-04-23T17:54:04.943Z,5.78
2019-04-23T17:56:35.958Z,6.05
2019-04-23T17:59:04.325Z,6.47
2019-04-23T18:04:14.109Z,6.50
2019-04-23T18:06:45.041Z,6.30
2019-04-23T18:11:44.592Z,6.73
2019-04-23T18:14:11.782Z,6.55
2019-04-23T18:16:56.931Z,7.00
2019-04-23T18:19:17.965Z,6.90
2019-04-23T18:27:31.008Z,6.20
2019-04-23T18:30:15.606Z,7.60
2019-04-23T18:33:42.756Z,6.75
2019-04-23T18:38:22.946Z,7.70
2019-04-23T18:41:00.842Z,7.30
2019-04-23T18:43:29.570Z,8.10
2019-04-23T18:45:54.124Z,7.80
2019-04-23T18:53:44.896Z,7.47
2019-04-23T19:01:15.206Z,6.97
2019-04-23T19:06:44.062Z,7.87
2019-04-23T19:15:23.580Z,8.03
2019-04-23T19:17:56.606Z,8.10
2019-04-23T19:20:37.899Z,8.00
2019-04-23T19:23:03.131Z,7.60
2019-04-23T19:28:30.704Z,8.40
2019-04-23T19:30:58.122Z,7.65
2019-04-23T19:33:32.801Z,8.40
2019-04-23T19:36:13.725Z,8.30
2019-04-23T19:38:28.805Z,8.98
2019-04-23T19:40:56.761Z,7.87
2019-04-23T19:43:37.143Z,8.35
2019-04-23T19:46:25.589Z,8.90
2019-04-23T19:48:42.485Z,8.85
2019-04-23T19:53:54.975Z,8.60
2019-04-23T19:58:56.824Z,8.30
2019-04-23T20:01:21.053Z,8.90
2019-04-23T20:03:55.978Z,8.80
2019-04-23T20:06:40.581Z,8.90
2019-04-23T20:13:55.558Z,8.97
2019-04-23T20:16:38.377Z,8.27
2019-04-23T20:19:04.906Z,7.97
2019-04-23T20:21:49.048Z,8.58
2019-04-23T20:24:21.563Z,8.60
2019-04-23T20:26:42.622Z,9.20
2019-04-23T20:37:01.942Z,8.73
2019-04-23T20:39:49.115Z,8.60
2019-04-23T20:52:29.204Z,9.33
2019-04-23T20:57:56.370Z,8.80
2019-04-23T21:00:32.602Z,9.25
2019-04-23T21:03:25.826Z,9.10
2019-04-23T21:05:27.895Z,9.50
2019-04-23T21:08:14.185Z,9.80
2019-04-23T21:15:45.596Z,9.30
2019-04-23T21:18:25.684Z,9.80
2019-04-23T21:20:48.865Z,10.10
2019-04-23T21:23:22.968Z,10.60
2019-04-23T21:25:52.586Z,10.30
2019-04-23T21:33:49.856Z,9.80
2019-04-23T21:36:39.905Z,11.03
2019-04-23T21:39:40.704Z,10.33
2019-04-23T21:42:14.128Z,10.35
2019-04-23T21:44:40.514Z,10.88
2019-04-23T21:47:09.098Z,10.95
2019-04-23T21:50:03.052Z,10.90
2019-04-23T21:52:17.982Z,10.00
2019-04-23T21:54:57.049Z,10.28
2019-04-23T21:57:32.475Z,11.43
2019-04-23T21:59:55.441Z,11.00
2019-04-23T22:02:27.709Z,11.00
2019-04-23T22:05:07.379Z,10.90
2019-04-23T22:07:50.127Z,10.50
2019-04-23T22:10:05.914Z,10.60
2019-04-23T22:12:48.802Z,11.40
2019-04-23T22:15:06.875Z,10.72
2019-04-23T22:17:44.600Z,10.20
2019-04-23T22:20:19.680Z,10.63
2019-04-23T22:22:56.926Z,11.55
2019-04-23T22:25:18.117Z,11.75
2019-04-23T22:27:54.805Z,12.78
2019-04-23T22:35:34.519Z,11.20
2019-04-23T22:38:09.753Z,11.57
2019-04-23T22:40:34.997Z,12.20
2019-04-23T22:45:44.379Z,11.65
2019-04-23T22:48:06.898Z,12.30
2019-04-23T22:53:20.543Z,11.93
2019-04-23T22:58:46.046Z,11.05
2019-04-23T23:01:23.610Z,11.70
2019-04-23T23:03:59.574Z,11.68
2019-04-23T23:06:43.484Z,11.80
2019-04-23T23:11:34.932Z,12.43
2019-04-23T23:14:35.285Z,12.68
2019-04-23T23:16:39.317Z,12.70
2019-04-23T23:19:21.765Z,12.40
2019-04-23T23:22:03.387Z,12.33
2019-04-23T23:24:13.606Z,13.10
2019-04-23T23:29:46.601Z,12.50
2019-04-23T23:34:30.508Z,12.95
2019-04-23T23:37:00.282Z,12.03
2019-04-23T23:39:29.407Z,13.23
2019-04-23T23:42:02.809Z,13.00
2019-04-23T23:44:44.568Z,13.00
2019-04-23T23:47:07.292Z,13.00
2019-04-23T23:49:48.426Z,13.20
2019-04-23T23:54:48.670Z,12.88
